Time;durP1;ratioP1;P1;durP2;ratioP2;P2;SDS_P1;SDS_P2;PMS_P1;PMS_P2;Temp;Humidity;BMP_temperature;BMP_pressure;BME280_temperature;BME280_humidity;BME280_pressure;Samples;Min_cycle;Max_cycle;Signal;HPM_P1;HPM_P2
2022/09/17 00:01:43;;;;;;;21.52;4.97;;;15.80;99.90;;;15.92;67.17;101309.84;5116963;28;20036;-67
2022/09/17 00:04:11;;;;;;;14.68;4.53;;;15.70;99.90;;;15.94;66.77;101324.03;5117216;28;20031;-68
2022/09/17 00:06:40;;;;;;;11.48;4.63;;;15.70;99.90;;;15.73;66.56;101313.78;5116908;28;20469;-67
2022/09/17 00:09:09;;;;;;;19.05;4.78;;;15.60;99.90;;;14.94;67.83;101205.84;5117121;28;20460;-67
2022/09/17 00:11:41;;;;;;;16.67;4.68;;;15.40;99.90;;;15.23;69.10;101298.63;5117290;28;20051;-67
2022/09/17 00:14:15;;;;;;;13.07;5.45;;;15.10;99.90;;;15.03;69.78;101317.59;5117346;28;20119;-67
2022/09/17 00:16:46;;;;;;;20.88;5.03;;;14.80;99.90;;;14.88;69.31;101280.53;5117021;28;20069;-67
2022/09/17 00:19:18;;;;;;;25.67;5.88;;;14.90;99.90;;;15.00;69.64;101320.28;5116952;28;20043;-67
2022/09/17 00:21:47;;;;;;;27.45;5.90;;;14.80;99.90;;;15.05;70.52;101320.22;5116632;28;20038;-67
2022/09/17 00:24:17;;;;;;;18.75;5.85;;;14.80;99.90;;;15.17;70.20;101312.94;5115491;28;20039;-67
2022/09/17 00:26:47;;;;;;;21.42;6.18;;;15.00;99.90;;;15.29;70.08;101319.84;5117067;28;20052;-67
2022/09/17 00:29:15;;;;;;;22.85;5.57;;;15.10;99.90;;;15.43;69.77;101315.19;5115551;28;20052;-67
2022/09/17 00:31:44;;;;;;;15.02;5.38;;;15.20;99.90;;;15.36;69.10;101321.50;5116260;28;20042;-67
2022/09/17 00:34:12;;;;;;;21.48;5.57;;;15.20;99.90;;;15.22;70.07;101321.72;5116615;28;20115;-67
2022/09/17 00:36:41;;;;;;;17.88;4.93;;;15.00;99.90;;;15.37;69.38;101326.81;5116266;28;20032;-67
2022/09/17 00:39:14;;;;;;;16.23;4.80;;;15.10;99.90;;;15.48;68.79;101345.34;5116259;28;20229;-67
2022/09/17 00:41:43;;;;;;;19.05;5.00;;;15.20;99.90;;;15.48;70.15;101363.09;5116267;28;20083;-67
2022/09/17 00:44:45;;;;;;;16.05;5.43;;;15.30;99.90;;;15.33;71.54;101319.75;5114342;28;20420;-67
2022/09/17 00:47:27;;;;;;;16.42;5.68;;;15.20;99.90;;;15.47;72.02;101330.22;5116043;28;20053;-67
2022/09/17 00:50:01;;;;;;;19.38;5.38;;;15.20;99.90;;;15.50;72.35;101329.31;5116325;28;20148;-67
2022/09/17 00:52:35;;;;;;;14.95;4.63;;;15.20;99.90;;;15.45;71.88;101317.84;5116046;28;20051;-67
2022/09/17 00:55:13;;;;;;;16.65;5.40;;;15.20;99.90;;;15.52;71.88;101327.50;5116534;28;20054;-67
2022/09/17 00:57:42;;;;;;;19.35;5.55;;;15.30;99.90;;;15.36;72.29;101303.72;5115934;28;20374;-67
2022/09/17 01:00:15;;;;;;;21.13;5.50;;;15.20;99.90;;;15.54;72.32;101333.69;5115768;28;20716;-67
2022/09/17 01:02:44;;;;;;;18.30;5.47;;;15.30;99.90;;;15.59;72.27;101331.81;5116135;28;20492;-67
2022/09/17 01:05:14;;;;;;;22.02;5.00;;;15.30;99.90;;;15.70;72.23;101316.50;5115719;28;20043;-67
2022/09/17 01:08:00;;;;;;;17.73;4.97;;;15.40;99.90;;;15.53;71.60;101319.47;5115732;28;20576;-67
2022/09/17 01:10:54;;;;;;;18.23;5.32;;;15.30;99.90;;;15.57;70.93;101313.16;5114684;28;20047;-67
2022/09/17 01:13:35;;;;;;;14.20;4.85;;;15.30;99.90;;;15.39;71.44;101301.00;5115550;28;20050;-67
2022/09/17 01:16:18;;;;;;;17.50;5.32;;;15.30;99.90;;;15.49;71.19;101320.41;5115492;28;20401;-67
2022/09/17 01:19:09;;;;;;;22.30;5.00;;;15.30;99.90;;;15.55;71.31;101317.66;5115432;28;20097;-67
2022/09/17 01:21:53;;;;;;;22.60;5.22;;;15.20;99.90;;;15.20;71.63;101296.00;5115337;28;20047;-67
2022/09/17 01:24:50;;;;;;;17.80;5.28;;;15.10;99.90;;;15.15;70.98;101316.53;5115645;28;20071;-67
2022/09/17 01:28:08;;;;;;;19.75;5.10;;;14.90;99.90;;;15.15;69.42;101311.19;5115538;28;20071;-67
2022/09/17 01:31:24;;;;;;;15.20;4.82;;;15.00;99.90;;;15.17;69.42;101314.72;5114102;28;20047;-67
2022/09/17 01:34:01;;;;;;;22.33;5.88;;;14.80;99.90;;;15.24;68.06;101321.69;5115447;28;20375;-67
2022/09/17 01:37:07;;;;;;;14.70;5.05;;;15.00;99.90;;;15.37;67.39;101321.47;5115121;28;20123;-67
2022/09/17 01:39:45;;;;;;;13.52;4.50;;;15.10;99.90;;;13.50;65.82;101075.84;5115272;28;20047;-67
2022/09/17 01:42:27;;;;;;;14.35;4.65;;;15.10;99.90;;;15.43;65.04;101322.31;5114948;27;20118;-67
2022/09/17 01:45:02;;;;;;;18.42;5.15;;;15.20;99.90;;;15.43;64.52;101325.84;5114939;28;20046;-67
2022/09/17 01:47:37;;;;;;;15.50;4.78;;;15.30;99.90;;;15.58;63.99;101336.25;5115115;28;20054;-68
2022/09/17 01:50:12;;;;;;;18.88;4.85;;;15.30;99.90;;;13.64;64.00;101055.28;5114550;28;20040;-67
2022/09/17 01:52:44;;;;;;;18.48;5.18;;;15.20;99.90;;;15.65;63.92;101342.38;5114781;28;20039;-67
2022/09/17 01:55:17;;;;;;;16.25;4.57;;;15.40;99.90;;;15.66;63.78;101312.13;5114728;28;20036;-67
2022/09/17 01:57:51;;;;;;;18.55;5.18;;;15.50;99.90;;;15.58;63.75;101317.56;5114728;28;20047;-67
2022/09/17 02:00:20;;;;;;;15.32;4.53;;;15.50;99.90;;;15.53;64.31;101346.13;5114673;28;20047;-67
2022/09/17 02:02:54;;;;;;;18.63;4.90;;;15.40;99.90;;;15.43;64.26;101333.84;5114528;28;20043;-67
2022/09/17 02:05:29;;;;;;;15.65;4.85;;;15.30;99.90;;;15.66;64.05;101345.00;5114477;28;20134;-67
2022/09/17 02:08:06;;;;;;;18.23;5.25;;;15.40;99.90;;;15.67;63.68;101333.44;5114525;28;20074;-67
2022/09/17 02:10:39;;;;;;;21.27;5.45;;;15.50;99.90;;;15.52;63.94;101316.81;5114672;28;20397;-67
2022/09/17 02:13:10;;;;;;;17.00;5.53;;;15.40;99.90;;;15.79;63.41;101349.22;5114434;28;20440;-67
2022/09/17 02:15:45;;;;;;;18.50;5.68;;;15.60;99.90;;;15.91;62.72;101342.78;5114328;28;20040;-67
2022/09/17 02:18:25;;;;;;;18.35;5.43;;;15.60;99.90;;;15.59;61.83;101314.03;5114593;28;20119;-67
2022/09/17 02:21:01;;;;;;;13.20;4.20;;;15.60;99.90;;;15.80;59.97;101344.75;5113034;28;20054;-67
2022/09/17 02:23:36;;;;;;;13.90;4.32;;;15.50;99.90;;;15.60;59.94;101341.56;5114516;28;20126;-67
2022/09/17 02:26:10;;;;;;;16.55;4.38;;;15.40;99.90;;;15.74;59.10;101345.75;5114059;28;20050;-67
2022/09/17 02:28:43;;;;;;;12.57;4.25;;;15.50;99.90;;;16.01;58.36;101345.25;5114093;28;20122;-67
2022/09/17 02:31:12;;;;;;;15.38;5.25;;;15.70;99.90;;;16.07;58.67;101345.13;5114031;28;20485;-67
2022/09/17 02:33:47;;;;;;;13.65;4.50;;;15.90;99.90;;;15.29;58.88;101246.09;5113975;28;20036;-67
2022/09/17 02:36:16;;;;;;;15.63;4.60;;;15.60;99.90;;;15.98;58.78;101344.41;5113899;28;20054;-67
2022/09/17 02:38:46;;;;;;;15.65;4.40;;;15.70;99.90;;;15.88;58.50;101338.38;5114141;28;20445;-67
2022/09/17 02:41:18;;;;;;;16.55;4.53;;;15.70;99.90;;;15.72;59.53;101354.66;5113748;28;20046;-67
2022/09/17 02:43:59;;;;;;;16.70;5.05;;;15.50;99.90;;;15.81;59.33;101352.75;5113742;28;20135;-67
2022/09/17 02:46:45;;;;;;;15.32;4.40;;;15.50;99.90;;;15.87;59.96;101343.75;5112755;28;20047;-67
2022/09/17 02:49:43;;;;;;;16.30;4.90;;;15.60;99.90;;;15.95;59.43;101349.84;5113793;28;20441;-67
2022/09/17 02:52:24;;;;;;;13.02;4.47;;;15.70;99.90;;;15.92;59.04;101363.22;5112182;28;20416;-67
2022/09/17 02:55:03;;;;;;;12.20;4.55;;;15.70;99.90;;;15.72;58.62;101352.88;5113919;28;20135;-67
2022/09/17 02:57:38;;;;;;;12.25;5.00;;;15.60;99.90;;;15.84;59.96;101360.69;5113915;28;20047;-67
2022/09/17 03:00:14;;;;;;;26.17;5.55;;;15.60;99.90;;;15.79;60.98;101356.34;5114164;28;20050;-67
2022/09/17 03:02:47;;;;;;;16.65;4.88;;;15.60;99.90;;;15.76;60.52;101380.38;5113542;28;20058;-67
2022/09/17 03:05:19;;;;;;;18.77;6.13;;;15.50;99.90;;;15.72;59.80;101363.56;5113504;28;20040;-67
2022/09/17 03:07:47;;;;;;;15.52;4.93;;;15.50;99.90;;;15.42;60.33;101364.09;5112772;28;20048;-67
2022/09/17 03:10:16;;;;;;;18.05;5.28;;;15.30;99.90;;;15.49;59.75;101319.53;5113406;28;20036;-67
2022/09/17 03:12:44;;;;;;;14.68;4.50;;;15.50;99.90;;;15.61;59.46;101346.00;5113395;28;20560;-67
2022/09/17 03:15:13;;;;;;;11.88;4.78;;;15.40;99.90;;;15.71;59.55;101355.59;5113517;28;20040;-67
2022/09/17 03:17:41;;;;;;;13.25;4.15;;;15.40;99.90;;;15.43;59.85;101354.31;5113571;28;20089;-67
2022/09/17 03:20:10;;;;;;;11.82;4.15;;;15.30;99.90;;;15.70;59.48;101353.84;5113592;28;20047;-67
2022/09/17 03:22:39;;;;;;;18.48;4.95;;;15.40;99.90;;;15.67;58.23;101336.09;5113291;28;20039;-67
2022/09/17 03:25:09;;;;;;;13.80;4.13;;;15.50;99.90;;;15.65;57.68;101342.38;5112317;28;20568;-67
2022/09/17 03:27:37;;;;;;;13.23;4.07;;;15.40;99.90;;;15.34;57.40;101302.88;5113203;28;20040;-67
2022/09/17 03:30:07;;;;;;;13.35;4.13;;;15.40;99.90;;;15.61;57.68;101343.31;5113548;28;20122;-67
2022/09/17 03:32:35;;;;;;;10.18;3.65;;;15.30;99.90;;;15.54;58.21;101353.22;5113736;28;20054;-67
2022/09/17 03:35:04;;;;;;;11.07;3.80;;;15.30;99.90;;;15.63;58.36;101349.50;5113483;28;20043;-67
2022/09/17 03:37:32;;;;;;;12.35;4.10;;;15.40;99.90;;;15.51;58.10;101305.28;5113368;28;20061;-67
2022/09/17 03:40:03;;;;;;;13.77;4.18;;;15.50;99.90;;;15.49;59.04;101343.53;5113278;28;20054;-67
2022/09/17 03:42:31;;;;;;;;;;;15.40;99.90;;;15.59;59.24;101345.13;5113546;28;20039;-67
2022/09/17 03:45:00;;;;;;;13.63;3.60;;;15.40;99.90;;;15.47;60.39;101351.56;5113355;28;19920;-67
2022/09/17 03:47:28;;;;;;;17.70;4.30;;;15.30;99.90;;;15.42;59.65;101355.22;5113138;28;20138;-67
2022/09/17 03:49:57;;;;;;;13.73;3.95;;;15.20;99.90;;;15.12;61.67;101362.75;5113096;28;20039;-67
2022/09/17 03:52:25;;;;;;;15.25;4.50;;;15.00;99.90;;;14.83;64.71;101348.97;5112984;28;20040;-67
2022/09/17 03:54:53;;;;;;;12.48;3.92;;;14.70;99.90;;;14.82;66.25;101341.00;5112951;28;20047;-67
2022/09/17 03:57:23;;;;;;;14.50;4.00;;;14.50;99.90;;;14.42;68.86;101322.91;5113276;28;20035;-67
2022/09/17 03:59:51;;;;;;;13.38;4.53;;;14.30;99.90;;;14.61;69.32;101349.28;5113000;28;20046;-67
2022/09/17 04:02:19;;;;;;;10.00;4.18;;;14.30;99.90;;;14.67;69.48;101367.84;5112833;28;20039;-67
2022/09/17 04:04:48;;;;;;;12.88;4.10;;;14.30;99.90;;;14.39;70.13;101328.28;5111974;28;20044;-67
2022/09/17 04:07:16;;;;;;;21.17;5.28;;;14.30;99.90;;;14.44;70.37;101360.13;5112848;28;20538;-67
2022/09/17 04:09:44;;;;;;;18.25;4.65;;;14.30;99.90;;;14.33;70.65;101359.38;5113151;28;20044;-67
2022/09/17 04:12:13;;;;;;;22.85;5.22;;;14.10;99.90;;;14.36;71.03;101356.72;5113076;28;20130;-68
2022/09/17 04:14:42;;;;;;;18.05;4.45;;;14.10;99.90;;;14.61;70.67;101354.63;5113131;28;20039;-67
2022/09/17 04:17:11;;;;;;;17.25;4.68;;;14.30;99.90;;;14.51;71.21;101358.28;5112775;28;20119;-68
2022/09/17 04:19:39;;;;;;;20.40;4.60;;;14.20;99.90;;;14.51;73.02;101364.50;5114774;28;20054;-67
2022/09/17 04:22:07;;;;;;;16.65;5.72;;;14.20;99.90;;;14.51;73.41;101369.81;5116936;28;20040;-67
2022/09/17 04:24:36;;;;;;;18.17;4.80;;;14.20;99.90;;;14.66;73.02;101363.41;5116374;28;20032;-67
2022/09/17 04:27:04;;;;;;;19.55;4.57;;;14.30;99.90;;;14.50;71.56;101373.38;5116448;28;20036;-67
2022/09/17 04:29:33;;;;;;;13.38;4.13;;;14.30;99.90;;;14.52;69.13;101354.75;5116643;28;20052;-68
2022/09/17 04:32:03;;;;;;;17.02;4.68;;;14.20;99.90;;;14.78;67.41;101361.47;5116327;28;20054;-67
2022/09/17 04:34:31;;;;;;;9.48;3.85;;;14.50;99.90;;;14.77;66.30;101378.34;5116870;28;20548;-67
2022/09/17 04:37:00;;;;;;;8.98;3.78;;;14.50;99.90;;;14.78;65.61;101364.13;5116244;28;20036;-67
2022/09/17 04:39:28;;;;;;;12.80;4.25;;;14.50;99.90;;;14.97;64.02;101362.97;5116242;27;20128;-67
2022/09/17 04:41:57;;;;;;;13.00;3.80;;;14.70;99.90;;;14.83;64.60;101367.59;5116021;28;20138;-67
2022/09/17 04:44:25;;;;;;;15.68;3.90;;;14.60;99.90;;;14.93;64.08;101353.25;5116163;28;20151;-67
2022/09/17 04:46:53;;;;;;;8.63;3.75;;;14.70;99.90;;;15.10;63.58;101361.00;5115038;28;20431;-67
2022/09/17 04:49:23;;;;;;;10.32;3.50;;;14.90;99.90;;;14.76;62.88;101344.63;5114632;28;20050;-67
2022/09/17 04:51:51;;;;;;;11.00;4.07;;;14.80;99.90;;;15.21;61.22;101381.25;5116255;28;20047;-67
2022/09/17 04:54:23;;;;;;;8.52;3.45;;;14.90;99.90;;;15.23;60.55;101383.91;5116016;28;20370;-67
2022/09/17 04:56:52;;;;;;;7.47;3.83;;;15.00;99.90;;;15.24;60.73;101381.22;5115844;28;20477;-67
2022/09/17 04:59:20;;;;;;;14.98;3.80;;;15.00;99.90;;;15.22;60.99;101377.69;5115802;28;20046;-67
2022/09/17 05:01:49;;;;;;;10.27;3.72;;;15.10;99.90;;;15.38;61.18;101381.91;5115802;28;20044;-67
2022/09/17 05:04:17;;;;;;;12.38;4.40;;;15.10;99.90;;;15.45;61.19;101379.16;5115713;28;20112;-67
2022/09/17 05:06:47;;;;;;;8.98;3.47;;;15.20;99.90;;;15.49;61.45;101380.84;5115696;28;20036;-67
2022/09/17 05:09:15;;;;;;;13.77;3.63;;;15.30;99.90;;;15.61;61.62;101378.88;5115830;28;20376;-67
2022/09/17 05:11:44;;;;;;;8.20;4.10;;;15.40;99.90;;;15.60;61.52;101377.09;5116047;28;20048;-67
2022/09/17 05:14:12;;;;;;;9.02;4.18;;;15.40;99.90;;;15.29;61.73;101371.34;5115719;28;20172;-67
2022/09/17 05:16:41;;;;;;;10.35;3.95;;;15.20;99.90;;;15.48;61.50;101376.44;5115455;28;20094;-67
2022/09/17 05:19:09;;;;;;;12.13;3.90;;;15.30;99.90;;;15.41;61.48;101378.28;5115389;28;20035;-67
2022/09/17 05:21:37;;;;;;;11.93;3.92;;;15.20;99.90;;;15.55;61.80;101394.97;5115671;28;20048;-67
2022/09/17 05:24:08;;;;;;;13.00;4.10;;;15.30;99.90;;;15.52;62.32;101404.81;5115279;28;20032;-67
2022/09/17 05:26:36;;;;;;;8.45;3.63;;;15.30;99.90;;;15.28;63.94;101409.59;5115322;28;20104;-67
2022/09/17 05:29:05;;;;;;;7.60;3.53;;;15.10;99.90;;;15.24;63.81;101394.53;5114030;28;20110;-67
2022/09/17 05:31:33;;;;;;;4.15;2.60;;;15.10;99.90;;;15.23;63.32;101386.59;5114698;28;20032;-67
2022/09/17 05:34:02;;;;;;;4.22;2.60;;;14.90;99.90;;;15.22;63.12;101383.03;5115119;28;20041;-67
2022/09/17 05:36:30;;;;;;;5.72;2.60;;;15.00;99.90;;;14.93;64.57;101385.22;5115709;28;20131;-67
2022/09/17 05:38:59;;;;;;;7.35;3.10;;;14.80;99.90;;;14.61;66.00;101387.44;5114014;28;20046;-67
2022/09/17 05:41:28;;;;;;;8.90;3.15;;;14.40;99.90;;;14.63;66.57;101390.97;5115004;28;20036;-67
2022/09/17 05:43:57;;;;;;;9.65;3.10;;;14.30;99.90;;;14.65;67.83;101386.53;5114830;28;20039;-67
2022/09/17 05:46:25;;;;;;;8.40;3.45;;;14.30;99.90;;;14.57;68.67;101375.06;5114832;28;20139;-67
2022/09/17 05:48:56;;;;;;;9.32;3.65;;;14.20;99.90;;;14.50;69.06;101378.69;5114831;28;20067;-67
2022/09/17 05:51:24;;;;;;;15.52;4.03;;;14.10;99.90;;;14.06;70.96;101386.28;5114747;28;20505;-67
2022/09/17 05:53:55;;;;;;;15.85;4.53;;;13.90;99.90;;;13.95;71.05;101375.75;5113712;28;20108;-67
2022/09/17 05:56:23;;;;;;;10.85;3.70;;;13.80;99.90;;;14.12;71.55;101396.84;5114851;28;20039;-68
2022/09/17 05:58:56;;;;;;;20.58;5.10;;;13.80;99.90;;;14.07;73.55;101396.88;5114650;28;20043;-67
2022/09/17 06:01:25;;;;;;;20.63;6.07;;;13.80;99.90;;;13.63;76.92;101403.53;5114675;28;20049;-67
2022/09/17 06:03:54;;;;;;;16.70;4.90;;;13.50;99.90;;;12.68;76.56;101269.63;5114394;28;20097;-67
2022/09/17 06:06:22;;;;;;;19.15;5.00;;;13.30;99.90;;;13.73;77.15;101418.50;5114709;28;20043;-67
2022/09/17 06:08:50;;;;;;;26.38;5.75;;;13.40;99.90;;;13.83;78.08;101420.19;5114445;28;20046;-67
2022/09/17 06:11:19;;;;;;;27.90;5.60;;;13.50;99.90;;;14.00;78.67;101424.47;5113247;28;20556;-67
2022/09/17 06:13:48;;;;;;;17.95;5.43;;;13.60;99.90;;;14.06;78.45;101426.16;5114313;28;20420;-67
2022/09/17 06:16:18;;;;;;;22.55;5.80;;;13.70;99.90;;;14.05;78.44;101416.44;5114526;28;20042;-67
2022/09/17 06:18:48;;;;;;;21.75;5.63;;;13.70;99.90;;;14.13;78.19;101409.28;5114249;28;20508;-67
2022/09/17 06:21:17;;;;;;;20.27;5.20;;;13.80;99.90;;;14.16;78.51;101398.59;5113195;28;20396;-67
2022/09/17 06:23:46;;;;;;;24.52;5.80;;;13.90;99.90;;;14.41;78.36;101421.41;5114013;28;20093;-67
2022/09/17 06:26:15;;;;;;;16.60;4.95;;;14.00;99.90;;;14.51;77.82;101441.69;5114050;27;20048;-67
2022/09/17 06:28:44;;;;;;;13.10;4.28;;;14.20;99.90;;;14.57;77.71;101419.44;5114310;28;20036;-67
2022/09/17 06:31:14;;;;;;;15.80;4.68;;;14.20;99.90;;;14.51;75.54;101403.53;5113939;28;20217;-67
2022/09/17 06:33:47;;;;;;;11.90;4.57;;;14.30;99.90;;;14.75;73.80;101413.91;5112970;28;20071;-67
2022/09/17 06:36:15;;;;;;;14.27;4.15;;;14.40;99.90;;;15.00;72.20;101413.53;5113836;28;20046;-67
2022/09/17 06:38:43;;;;;;;12.40;3.83;;;14.70;99.90;;;15.21;69.52;101421.22;5113830;28;20062;-67
2022/09/17 06:41:13;;;;;;;11.68;4.28;;;14.90;99.90;;;14.91;69.24;101408.34;5113830;28;20102;-67
2022/09/17 06:43:41;;;;;;;15.50;4.30;;;14.80;99.90;;;15.10;69.20;101414.28;5112805;28;20069;-67
2022/09/17 06:46:10;;;;;;;14.23;4.00;;;14.80;99.90;;;14.90;68.95;101411.03;5113991;28;20050;-67
2022/09/17 06:48:39;;;;;;;18.13;4.72;;;14.70;99.90;;;14.97;67.87;101413.59;5112677;28;20040;-67
2022/09/17 06:51:11;;;;;;;13.27;4.20;;;14.70;99.90;;;15.09;67.93;101418.75;5113633;28;20056;-67
2022/09/17 06:53:39;;;;;;;15.38;4.43;;;14.70;99.90;;;15.40;66.17;101435.19;5112630;28;20496;-68
2022/09/17 06:56:09;;;;;;;10.10;3.88;;;15.00;99.90;;;15.49;65.84;101416.41;5113797;28;20040;-68
2022/09/17 06:58:40;;;;;;;17.30;5.13;;;15.30;99.90;;;15.73;66.83;101428.47;5114217;28;20069;-68
2022/09/17 07:01:10;;;;;;;10.57;3.65;;;15.40;99.90;;;15.90;67.06;101437.06;5113800;28;20130;-68
2022/09/17 07:03:41;;;;;;;14.30;4.32;;;15.60;99.90;;;15.27;66.37;101298.53;5113479;28;20057;-68
2022/09/17 07:06:11;;;;;;;18.40;4.50;;;15.80;99.90;;;15.87;66.22;101407.78;5114056;28;20043;-67
2022/09/17 07:08:40;;;;;;;;;;;15.80;99.90;;;15.93;66.35;101427.22;5113858;28;20123;-68
2022/09/17 07:11:08;;;;;;;10.75;4.07;;;15.70;99.90;;;15.43;65.15;101387.16;5112039;28;19920;-68
2022/09/17 07:13:37;;;;;;;11.35;3.45;;;15.50;99.90;;;15.66;63.47;101434.81;5113410;28;20040;-67
2022/09/17 07:16:06;;;;;;;7.90;3.65;;;15.40;99.90;;;15.65;62.21;101419.69;5113244;28;20048;-67
2022/09/17 07:18:35;;;;;;;6.90;2.83;;;15.50;99.90;;;16.05;60.90;101442.13;5113190;28;20051;-68
2022/09/17 07:21:06;;;;;;;11.23;3.70;;;15.70;99.90;;;16.26;61.14;101439.97;5113247;28;20553;-67
2022/09/17 07:23:37;;;;;;;7.75;3.17;;;16.00;99.90;;;16.71;59.33;101448.91;5113180;28;20108;-68
2022/09/17 07:26:08;;;;;;;9.95;3.45;;;16.40;99.90;;;16.97;59.17;101437.69;5113833;28;20044;-68
2022/09/17 07:28:38;;;;;;;;;;;16.70;99.90;;;17.24;58.37;101434.41;5113788;28;20040;-68
2022/09/17 07:31:08;;;;;;;8.75;3.13;;;17.00;99.90;;;17.47;57.07;101407.13;5112183;28;19926;-68
2022/09/17 07:33:44;;;;;;;7.40;3.28;;;17.40;99.90;;;17.90;57.51;101442.66;5113092;28;20071;-68
2022/09/17 07:36:16;;;;;;;8.88;3.70;;;17.60;99.90;;;17.22;55.41;101270.47;5113381;28;20179;-68
2022/09/17 07:38:46;;;;;;;8.13;3.40;;;18.00;99.90;;;17.63;55.96;101430.84;5113332;28;20052;-68
2022/09/17 07:41:17;;;;;;;7.28;3.08;;;17.50;99.90;;;17.81;55.21;101438.38;5113200;28;20408;-68
2022/09/17 07:43:45;;;;;;;11.20;3.08;;;17.60;99.90;;;17.92;54.54;101448.84;5112950;28;20043;-67
2022/09/17 07:46:16;;;;;;;6.00;2.92;;;17.70;99.90;;;17.30;54.95;101340.66;5112925;28;20047;-67
2022/09/17 07:48:45;;;;;;;8.63;3.40;;;17.70;99.90;;;17.71;55.42;101439.53;5113307;28;20109;-67
2022/09/17 07:51:16;;;;;;;10.48;3.90;;;17.70;99.90;;;17.79;55.71;101417.94;5112820;28;20055;-68
2022/09/17 07:53:46;;;;;;;13.73;3.60;;;17.90;99.90;;;18.07;56.78;101453.81;5112030;28;20055;-67
2022/09/17 07:56:15;;;;;;;11.10;3.63;;;17.90;99.90;;;18.24;57.38;101467.63;5117420;28;20497;-68
2022/09/17 07:58:43;;;;;;;9.45;3.25;;;18.00;99.90;;;17.65;59.07;101469.09;5117203;28;20043;-67
2022/09/17 08:01:14;;;;;;;10.10;3.72;;;17.60;99.90;;;17.53;59.66;101469.44;5116955;28;20118;-68
2022/09/17 08:03:44;;;;;;;7.55;3.30;;;17.50;99.90;;;16.68;62.10;101469.47;5117155;28;20079;-67
2022/09/17 08:06:15;;;;;;;7.40;3.55;;;16.60;99.90;;;16.52;61.92;101450.19;5117381;28;20044;-67
2022/09/17 08:08:44;;;;;;;4.15;3.00;;;16.50;99.90;;;16.39;63.03;101461.09;5116927;28;20043;-68
2022/09/17 08:11:16;;;;;;;6.80;3.40;;;16.20;99.90;;;16.28;64.26;101445.25;5116647;28;20043;-67
2022/09/17 08:14:04;;;;;;;7.07;3.53;;;16.20;99.90;;;16.55;63.99;101449.25;5116961;28;20047;-67
2022/09/17 08:16:33;;;;;;;5.85;3.15;;;16.30;99.90;;;16.90;63.04;101426.22;5116916;28;20044;-67
2022/09/17 08:19:02;;;;;;;7.38;3.05;;;16.70;99.90;;;17.47;62.10;101440.09;5117181;28;20047;-67
2022/09/17 08:21:30;;;;;;;8.63;3.22;;;17.20;99.90;;;17.87;60.55;101451.63;5117075;28;20143;-67
2022/09/17 08:23:59;;;;;;;9.63;3.45;;;17.60;99.90;;;17.95;60.54;101427.34;5115083;28;20075;-67
2022/09/17 08:26:28;;;;;;;8.32;3.60;;;17.90;99.90;;;18.21;59.57;101450.75;5115472;28;20069;-67
2022/09/17 08:28:57;;;;;;;8.00;3.42;;;18.10;99.90;;;18.44;59.34;101464.47;5117031;28;20126;-68
2022/09/17 08:31:29;;;;;;;8.95;3.53;;;18.20;99.90;;;18.28;59.63;101447.00;5116285;28;20036;-67
2022/09/17 08:33:58;;;;;;;13.02;3.80;;;18.10;99.90;;;18.52;60.55;101463.34;5116345;28;20050;-67
2022/09/17 08:36:27;;;;;;;6.28;3.28;;;18.20;99.90;;;18.85;60.26;101459.69;5116133;28;20066;-68
2022/09/17 08:38:57;;;;;;;7.00;2.85;;;18.50;99.90;;;19.02;59.53;101466.38;5116163;28;20039;-67
2022/09/17 08:41:42;;;;;;;9.70;3.55;;;18.80;99.90;;;19.00;58.13;101465.53;5116218;28;20039;-68
2022/09/17 08:44:23;;;;;;;10.40;3.55;;;18.80;99.90;;;18.26;58.03;101464.91;5116018;28;20048;-67
2022/09/17 08:46:57;;;;;;;6.43;3.05;;;18.20;99.90;;;18.02;57.23;101453.91;5116437;28;20047;-68
2022/09/17 08:49:33;;;;;;;6.45;3.15;;;17.80;99.90;;;17.78;57.57;101475.94;5116146;28;20079;-68
2022/09/17 08:52:58;;;;;;;8.93;3.13;;;17.60;99.90;;;18.17;57.98;101476.75;5116250;28;20059;-67
2022/09/17 08:55:39;;;;;;;7.95;3.90;;;17.90;99.90;;;17.81;60.11;101480.31;5113606;28;20047;-68
2022/09/17 08:58:53;;;;;;;11.77;3.67;;;17.70;99.90;;;17.87;60.98;101481.06;5115651;28;20059;-67
2022/09/17 09:01:33;;;;;;;9.80;3.67;;;17.60;99.90;;;17.40;60.76;101461.69;5115637;28;20046;-68
2022/09/17 09:04:37;;;;;;;6.78;3.33;;;17.50;99.90;;;17.63;60.26;101470.09;5115884;28;20141;-68
2022/09/17 09:07:11;;;;;;;6.03;3.50;;;17.40;99.90;;;17.53;59.61;101469.44;5069444;28;20514;-67
2022/09/17 09:09:50;;;;;;;7.50;3.17;;;17.40;99.90;;;17.73;59.85;101472.50;5115361;28;20123;-68
2022/09/17 09:12:25;;;;;;;5.93;3.25;;;17.50;99.90;;;16.78;59.29;101303.56;5115531;28;20039;-68
2022/09/17 09:15:00;;;;;;;13.52;3.95;;;17.50;99.90;;;17.42;60.60;101489.28;5115143;28;20058;-67
2022/09/17 09:17:35;;;;;;;9.65;3.13;;;17.20;99.90;;;17.25;60.57;101494.97;5115673;28;20374;-67
2022/09/17 09:20:05;;;;;;;7.40;3.65;;;17.20;99.90;;;17.09;62.43;101497.09;5115513;28;20413;-67
2022/09/17 09:22:48;;;;;;;11.17;3.90;;;16.90;99.90;;;16.63;64.85;101480.22;5115294;28;20047;-68
2022/09/17 09:25:23;;;;;;;7.90;3.33;;;16.50;99.90;;;16.41;66.28;101489.53;5115463;28;20308;-67
2022/09/17 09:28:14;;;;;;;11.65;4.07;;;16.20;99.90;;;16.61;66.52;101498.06;5115465;28;20050;-68
2022/09/17 09:30:57;;;;;;;10.32;3.85;;;16.30;99.90;;;16.51;68.47;101496.47;5115767;28;20047;-67
2022/09/17 09:33:31;;;;;;;10.35;3.70;;;16.20;99.90;;;16.69;68.50;101493.47;5115119;28;20128;-67
2022/09/17 09:35:59;;;;;;;12.30;3.42;;;16.30;99.90;;;16.90;66.73;101492.16;5115091;28;20039;-67
2022/09/17 09:38:34;;;;;;;10.80;3.55;;;16.60;99.90;;;17.56;66.82;101484.50;5115119;27;20401;-67
2022/09/17 09:41:09;;;;;;;9.02;3.50;;;17.10;99.90;;;18.03;62.60;101474.44;5115022;28;20464;-68
2022/09/17 09:43:44;;;;;;;8.35;3.75;;;17.70;99.90;;;18.53;59.37;101473.13;5115310;28;20096;-67
2022/09/17 09:47:18;;;;;;;11.10;3.90;;;18.20;99.90;;;18.27;57.23;101464.88;5114936;28;20071;-68
2022/09/17 09:50:08;;;;;;;11.23;3.83;;;18.30;99.90;;;18.44;58.90;101486.78;5110577;28;20051;-67
2022/09/17 09:52:54;;;;;;;9.20;3.53;;;18.10;99.90;;;18.24;58.33;101483.69;5114757;28;20503;-67
2022/09/17 09:55:50;;;;;;;9.85;3.75;;;18.00;99.90;;;18.38;58.06;101480.66;5115349;28;20039;-67
2022/09/17 09:58:30;;;;;;;9.30;3.47;;;18.00;99.90;;;17.60;60.18;101488.88;5115247;28;20040;-67
2022/09/17 10:00:59;;;;;;;;;;;17.50;99.90;;;16.93;61.98;101484.97;5115164;28;20036;-67
2022/09/17 10:03:31;;;;;;;11.00;4.05;;;16.90;99.90;;;17.41;60.69;101477.69;5115134;28;19920;-67
2022/09/17 10:06:02;;;;;;;10.35;4.28;;;17.00;99.90;;;17.57;59.30;101471.13;5114438;28;20043;-68
2022/09/17 10:08:33;;;;;;;12.40;4.70;;;17.30;99.90;;;17.56;59.52;101474.69;5115110;28;20043;-67
2022/09/17 10:11:05;;;;;;;13.18;4.25;;;17.40;99.90;;;18.10;59.48;101472.44;5114439;28;20043;-67
2022/09/17 10:13:36;;;;;;;9.70;3.78;;;17.70;99.90;;;17.61;57.97;101426.44;5114193;28;20378;-67
2022/09/17 10:16:18;;;;;;;9.95;3.97;;;17.70;99.90;;;17.67;59.56;101459.25;5114227;28;20404;-68
2022/09/17 10:19:12;;;;;;;14.90;4.80;;;17.50;99.90;;;18.08;57.96;101466.25;5114055;28;20078;-68
2022/09/17 10:21:42;;;;;;;14.55;4.22;;;17.70;99.90;;;17.86;58.25;101486.47;5114729;28;20118;-67
2022/09/17 10:24:22;;;;;;;9.98;4.13;;;17.60;99.90;;;18.28;55.99;101482.69;5114529;28;20058;-67
2022/09/17 10:26:52;;;;;;;8.00;3.90;;;18.00;99.90;;;18.66;54.09;101487.94;5114242;28;20126;-68
2022/09/17 10:29:21;;;;;;;9.88;4.70;;;18.30;99.90;;;18.91;51.65;101462.19;5114305;28;20454;-68
2022/09/17 10:31:51;;;;;;;9.63;3.80;;;18.80;99.90;;;19.53;52.01;101483.63;5114397;28;20062;-68
2022/09/17 10:34:24;;;;;;;14.38;4.22;;;19.20;99.90;;;19.59;50.17;101486.06;5114336;28;20476;-66